sensor_id;sensor_type;location;lat;lon;timestamp;P1;durP1;ratioP1;P2;durP2;ratioP2
58101;SDS011;52034;51.926;6.320;2022-09-09T00:00:35;6.63;;;3.50;;
58101;SDS011;52034;51.926;6.320;2022-09-09T00:03:34;3.47;;;3.03;;
58101;SDS011;52034;51.926;6.320;2022-09-09T00:05:00;3.20;;;2.90;;
58101;SDS011;52034;51.926;6.320;2022-09-09T00:08:31;4.88;;;2.65;;
58101;SDS011;52034;51.926;6.320;2022-09-09T00:10:09;3.85;;;2.97;;
58101;SDS011;52034;51.926;6.320;2022-09-09T00:15:17;4.13;;;2.47;;
58101;SDS011;52034;51.926;6.320;2022-09-09T00:16:40;3.85;;;2.30;;
58101;SDS011;52034;51.926;6.320;2022-09-09T00:18:07;3.30;;;2.72;;
58101;SDS011;52034;51.926;6.320;2022-09-09T00:22:53;2.50;;;2.20;;
58101;SDS011;52034;51.926;6.320;2022-09-09T00:24:44;3.78;;;2.25;;
58101;SDS011;52034;51.926;6.320;2022-09-09T00:26:08;3.97;;;2.13;;
58101;SDS011;52034;51.926;6.320;2022-09-09T00:27:35;3.35;;;2.15;;
58101;SDS011;52034;51.926;6.320;2022-09-09T00:29:20;3.63;;;1.90;;
58101;SDS011;52034;51.926;6.320;2022-09-09T00:30:45;2.08;;;1.90;;
58101;SDS011;52034;51.926;6.320;2022-09-09T00:32:17;2.30;;;2.10;;
58101;SDS011;52034;51.926;6.320;2022-09-09T00:33:37;4.25;;;2.38;;
58101;SDS011;52034;51.926;6.320;2022-09-09T00:35:02;2.50;;;2.28;;
58101;SDS011;52034;51.926;6.320;2022-09-09T00:36:41;2.30;;;2.03;;
58101;SDS011;52034;51.926;6.320;2022-09-09T00:38:09;2.40;;;2.00;;
58101;SDS011;52034;51.926;6.320;2022-09-09T00:39:44;2.08;;;1.90;;
58101;SDS011;52034;51.926;6.320;2022-09-09T00:42:42;6.47;;;2.67;;
58101;SDS011;52034;51.926;6.320;2022-09-09T00:44:50;3.60;;;2.35;;
58101;SDS011;52034;51.926;6.320;2022-09-09T00:47:44;2.88;;;2.58;;
58101;SDS011;52034;51.926;6.320;2022-09-09T00:50:48;5.43;;;2.60;;
58101;SDS011;52034;51.926;6.320;2022-09-09T00:52:32;4.32;;;3.00;;
58101;SDS011;52034;51.926;6.320;2022-09-09T00:57:07;2.92;;;2.72;;
58101;SDS011;52034;51.926;6.320;2022-09-09T00:58:29;3.47;;;3.10;;
58101;SDS011;52034;51.926;6.320;2022-09-09T00:59:50;3.20;;;2.90;;
58101;SDS011;52034;51.926;6.320;2022-09-09T01:01:11;3.47;;;2.85;;
58101;SDS011;52034;51.926;6.320;2022-09-09T01:03:54;4.10;;;2.83;;
58101;SDS011;52034;51.926;6.320;2022-09-09T01:05:19;4.50;;;2.90;;
58101;SDS011;52034;51.926;6.320;2022-09-09T01:06:41;4.35;;;2.72;;
58101;SDS011;52034;51.926;6.320;2022-09-09T01:08:00;2.63;;;2.42;;
58101;SDS011;52034;51.926;6.320;2022-09-09T01:10:44;3.80;;;2.75;;
58101;SDS011;52034;51.926;6.320;2022-09-09T01:12:17;4.25;;;2.25;;
58101;SDS011;52034;51.926;6.320;2022-09-09T01:15:47;2.42;;;2.17;;
58101;SDS011;52034;51.926;6.320;2022-09-09T01:17:20;2.58;;;1.92;;
58101;SDS011;52034;51.926;6.320;2022-09-09T01:18:51;4.43;;;2.03;;
58101;SDS011;52034;51.926;6.320;2022-09-09T01:21:50;3.75;;;2.17;;
58101;SDS011;52034;51.926;6.320;2022-09-09T01:23:25;2.08;;;1.98;;
58101;SDS011;52034;51.926;6.320;2022-09-09T01:25:10;4.18;;;2.00;;
58101;SDS011;52034;51.926;6.320;2022-09-09T01:27:07;3.33;;;1.97;;
58101;SDS011;52034;51.926;6.320;2022-09-09T01:28:26;2.42;;;1.70;;
58101;SDS011;52034;51.926;6.320;2022-09-09T01:29:50;2.25;;;2.00;;
58101;SDS011;52034;51.926;6.320;2022-09-09T01:31:11;1.70;;;1.60;;
58101;SDS011;52034;51.926;6.320;2022-09-09T01:34:02;2.90;;;2.05;;
58101;SDS011;52034;51.926;6.320;2022-09-09T01:38:23;2.60;;;1.70;;
58101;SDS011;52034;51.926;6.320;2022-09-09T01:39:44;3.05;;;1.75;;
58101;SDS011;52034;51.926;6.320;2022-09-09T01:41:06;1.75;;;1.60;;
58101;SDS011;52034;51.926;6.320;2022-09-09T01:42:42;2.95;;;1.73;;
58101;SDS011;52034;51.926;6.320;2022-09-09T01:44:02;1.77;;;1.58;;
58101;SDS011;52034;51.926;6.320;2022-09-09T01:45:23;2.92;;;1.45;;
58101;SDS011;52034;51.926;6.320;2022-09-09T01:46:42;1.75;;;1.52;;
58101;SDS011;52034;51.926;6.320;2022-09-09T01:48:07;3.03;;;1.50;;
58101;SDS011;52034;51.926;6.320;2022-09-09T01:49:36;4.22;;;1.50;;
58101;SDS011;52034;51.926;6.320;2022-09-09T01:51:02;1.50;;;1.40;;
58101;SDS011;52034;51.926;6.320;2022-09-09T01:52:22;3.97;;;1.92;;
58101;SDS011;52034;51.926;6.320;2022-09-09T01:53:41;2.08;;;1.70;;
58101;SDS011;52034;51.926;6.320;2022-09-09T01:55:03;1.70;;;1.60;;
58101;SDS011;52034;51.926;6.320;2022-09-09T02:01:22;2.28;;;1.65;;
58101;SDS011;52034;51.926;6.320;2022-09-09T02:03:02;2.83;;;1.80;;
58101;SDS011;52034;51.926;6.320;2022-09-09T02:04:42;3.55;;;1.80;;
58101;SDS011;52034;51.926;6.320;2022-09-09T02:06:14;3.92;;;1.60;;
58101;SDS011;52034;51.926;6.320;2022-09-09T02:07:41;2.95;;;1.58;;
58101;SDS011;52034;51.926;6.320;2022-09-09T02:09:22;2.28;;;1.60;;
58101;SDS011;52034;51.926;6.320;2022-09-09T02:10:47;4.38;;;1.55;;
58101;SDS011;52034;51.926;6.320;2022-09-09T02:12:32;3.42;;;1.60;;
58101;SDS011;52034;51.926;6.320;2022-09-09T02:13:54;3.35;;;1.80;;
58101;SDS011;52034;51.926;6.320;2022-09-09T02:15:20;3.28;;;1.80;;
58101;SDS011;52034;51.926;6.320;2022-09-09T02:18:23;2.22;;;1.60;;
58101;SDS011;52034;51.926;6.320;2022-09-09T02:19:46;2.90;;;1.90;;
58101;SDS011;52034;51.926;6.320;2022-09-09T02:21:21;4.70;;;1.90;;
58101;SDS011;52034;51.926;6.320;2022-09-09T02:22:42;2.95;;;2.03;;
58101;SDS011;52034;51.926;6.320;2022-09-09T02:24:06;2.45;;;2.03;;
58101;SDS011;52034;51.926;6.320;2022-09-09T02:25:34;5.07;;;2.00;;
58101;SDS011;52034;51.926;6.320;2022-09-09T02:27:05;2.20;;;2.00;;
58101;SDS011;52034;51.926;6.320;2022-09-09T02:28:28;2.67;;;2.10;;
58101;SDS011;52034;51.926;6.320;2022-09-09T02:29:48;2.92;;;2.30;;
58101;SDS011;52034;51.926;6.320;2022-09-09T02:31:11;2.08;;;1.92;;
58101;SDS011;52034;51.926;6.320;2022-09-09T02:32:33;5.57;;;2.47;;
58101;SDS011;52034;51.926;6.320;2022-09-09T02:33:55;4.95;;;2.30;;
58101;SDS011;52034;51.926;6.320;2022-09-09T02:35:20;3.35;;;2.40;;
58101;SDS011;52034;51.926;6.320;2022-09-09T02:36:41;2.47;;;2.28;;
58101;SDS011;52034;51.926;6.320;2022-09-09T02:38:04;4.10;;;2.22;;
58101;SDS011;52034;51.926;6.320;2022-09-09T02:39:26;2.50;;;2.08;;
58101;SDS011;52034;51.926;6.320;2022-09-09T02:40:45;4.65;;;2.30;;
58101;SDS011;52034;51.926;6.320;2022-09-09T02:42:05;5.47;;;2.25;;
58101;SDS011;52034;51.926;6.320;2022-09-09T02:43:24;2.50;;;2.25;;
58101;SDS011;52034;51.926;6.320;2022-09-09T02:44:44;3.55;;;2.20;;
58101;SDS011;52034;51.926;6.320;2022-09-09T02:51:19;3.75;;;2.60;;
58101;SDS011;52034;51.926;6.320;2022-09-09T02:52:52;5.13;;;2.22;;
58101;SDS011;52034;51.926;6.320;2022-09-09T02:56:03;3.00;;;2.60;;
58101;SDS011;52034;51.926;6.320;2022-09-09T02:57:26;4.93;;;2.67;;
58101;SDS011;52034;51.926;6.320;2022-09-09T02:58:48;5.55;;;2.63;;
58101;SDS011;52034;51.926;6.320;2022-09-09T03:00:08;3.72;;;2.60;;
58101;SDS011;52034;51.926;6.320;2022-09-09T03:01:29;4.43;;;2.80;;
58101;SDS011;52034;51.926;6.320;2022-09-09T03:02:48;4.78;;;2.90;;
58101;SDS011;52034;51.926;6.320;2022-09-09T03:04:08;4.28;;;3.40;;
58101;SDS011;52034;51.926;6.320;2022-09-09T03:05:28;5.65;;;3.13;;
58101;SDS011;52034;51.926;6.320;2022-09-09T03:06:47;4.32;;;3.17;;
58101;SDS011;52034;51.926;6.320;2022-09-09T03:08:12;4.85;;;3.22;;
58101;SDS011;52034;51.926;6.320;2022-09-09T03:09:32;3.50;;;3.28;;
58101;SDS011;52034;51.926;6.320;2022-09-09T03:10:54;3.70;;;3.03;;
58101;SDS011;52034;51.926;6.320;2022-09-09T03:12:13;4.00;;;3.05;;
58101;SDS011;52034;51.926;6.320;2022-09-09T03:13:33;3.78;;;3.00;;
58101;SDS011;52034;51.926;6.320;2022-09-09T03:14:52;3.30;;;3.00;;
58101;SDS011;52034;51.926;6.320;2022-09-09T03:16:12;4.55;;;2.80;;
58101;SDS011;52034;51.926;6.320;2022-09-09T03:17:35;6.20;;;3.05;;
58101;SDS011;52034;51.926;6.320;2022-09-09T03:18:55;3.85;;;2.97;;
58101;SDS011;52034;51.926;6.320;2022-09-09T03:20:14;4.00;;;2.97;;
58101;SDS011;52034;51.926;6.320;2022-09-09T03:21:35;3.00;;;2.80;;
58101;SDS011;52034;51.926;6.320;2022-09-09T03:22:54;6.90;;;2.97;;
58101;SDS011;52034;51.926;6.320;2022-09-09T03:24:13;5.13;;;2.70;;
58101;SDS011;52034;51.926;6.320;2022-09-09T03:25:32;4.70;;;3.10;;
58101;SDS011;52034;51.926;6.320;2022-09-09T03:26:52;5.82;;;3.03;;
58101;SDS011;52034;51.926;6.320;2022-09-09T03:28:11;4.57;;;3.10;;
58101;SDS011;52034;51.926;6.320;2022-09-09T03:29:31;6.30;;;2.85;;
58101;SDS011;52034;51.926;6.320;2022-09-09T03:30:57;3.95;;;3.30;;
58101;SDS011;52034;51.926;6.320;2022-09-09T03:32:17;3.25;;;2.95;;
58101;SDS011;52034;51.926;6.320;2022-09-09T03:33:37;4.03;;;2.80;;
58101;SDS011;52034;51.926;6.320;2022-09-09T03:34:57;4.15;;;3.10;;
58101;SDS011;52034;51.926;6.320;2022-09-09T03:36:17;3.85;;;2.90;;
58101;SDS011;52034;51.926;6.320;2022-09-09T03:37:36;4.40;;;3.20;;
58101;SDS011;52034;51.926;6.320;2022-09-09T03:38:57;3.85;;;3.10;;
58101;SDS011;52034;51.926;6.320;2022-09-09T03:40:19;3.85;;;3.28;;
58101;SDS011;52034;51.926;6.320;2022-09-09T03:41:38;4.15;;;2.95;;
58101;SDS011;52034;51.926;6.320;2022-09-09T03:42:59;5.18;;;2.95;;
58101;SDS011;52034;51.926;6.320;2022-09-09T03:44:18;3.90;;;3.20;;
58101;SDS011;52034;51.926;6.320;2022-09-09T03:45:37;10.05;;;3.35;;
58101;SDS011;52034;51.926;6.320;2022-09-09T03:46:56;4.55;;;3.42;;
58101;SDS011;52034;51.926;6.320;2022-09-09T03:48:16;4.60;;;2.88;;
58101;SDS011;52034;51.926;6.320;2022-09-09T03:49:35;4.85;;;3.35;;
58101;SDS011;52034;51.926;6.320;2022-09-09T03:50:55;4.53;;;3.15;;
58101;SDS011;52034;51.926;6.320;2022-09-09T03:52:16;9.13;;;3.30;;
58101;SDS011;52034;51.926;6.320;2022-09-09T03:53:37;7.10;;;3.33;;
58101;SDS011;52034;51.926;6.320;2022-09-09T03:54:56;5.05;;;2.92;;
58101;SDS011;52034;51.926;6.320;2022-09-09T03:56:16;3.67;;;2.90;;
58101;SDS011;52034;51.926;6.320;2022-09-09T03:57:35;6.25;;;2.80;;
58101;SDS011;52034;51.926;6.320;2022-09-09T03:58:56;3.28;;;2.72;;
58101;SDS011;52034;51.926;6.320;2022-09-09T04:00:16;7.18;;;3.30;;
58101;SDS011;52034;51.926;6.320;2022-09-09T04:01:37;6.18;;;3.20;;
58101;SDS011;52034;51.926;6.320;2022-09-09T04:02:55;6.80;;;3.28;;
58101;SDS011;52034;51.926;6.320;2022-09-09T04:04:16;10.10;;;3.72;;
58101;SDS011;52034;51.926;6.320;2022-09-09T04:05:35;4.50;;;2.90;;
58101;SDS011;52034;51.926;6.320;2022-09-09T04:08:17;3.67;;;2.80;;
58101;SDS011;52034;51.926;6.320;2022-09-09T04:09:37;5.40;;;3.25;;
58101;SDS011;52034;51.926;6.320;2022-09-09T04:10:57;5.28;;;3.10;;
58101;SDS011;52034;51.926;6.320;2022-09-09T04:12:16;6.97;;;3.40;;
58101;SDS011;52034;51.926;6.320;2022-09-09T04:13:37;5.65;;;2.80;;
58101;SDS011;52034;51.926;6.320;2022-09-09T04:14:59;6.28;;;2.88;;
58101;SDS011;52034;51.926;6.320;2022-09-09T04:16:18;7.05;;;3.00;;
58101;SDS011;52034;51.926;6.320;2022-09-09T04:17:37;5.97;;;3.38;;
58101;SDS011;52034;51.926;6.320;2022-09-09T04:18:57;5.10;;;3.10;;
58101;SDS011;52034;51.926;6.320;2022-09-09T04:20:17;6.57;;;3.35;;
58101;SDS011;52034;51.926;6.320;2022-09-09T04:21:37;9.63;;;3.60;;
58101;SDS011;52034;51.926;6.320;2022-09-09T04:22:58;7.45;;;3.38;;
58101;SDS011;52034;51.926;6.320;2022-09-09T04:24:18;10.68;;;3.30;;
58101;SDS011;52034;51.926;6.320;2022-09-09T04:25:37;7.32;;;3.88;;
58101;SDS011;52034;51.926;6.320;2022-09-09T04:26:57;3.90;;;3.05;;
58101;SDS011;52034;51.926;6.320;2022-09-09T04:28:16;4.28;;;3.20;;
58101;SDS011;52034;51.926;6.320;2022-09-09T04:29:36;9.73;;;3.50;;
58101;SDS011;52034;51.926;6.320;2022-09-09T04:30:56;6.93;;;3.22;;
58101;SDS011;52034;51.926;6.320;2022-09-09T04:32:15;4.70;;;3.17;;
58101;SDS011;52034;51.926;6.320;2022-09-09T04:33:35;5.85;;;3.20;;
58101;SDS011;52034;51.926;6.320;2022-09-09T04:34:54;7.80;;;2.95;;
58101;SDS011;52034;51.926;6.320;2022-09-09T04:36:13;5.38;;;3.30;;
58101;SDS011;52034;51.926;6.320;2022-09-09T04:37:32;8.18;;;3.85;;
58101;SDS011;52034;51.926;6.320;2022-09-09T04:38:52;5.75;;;3.22;;
58101;SDS011;52034;51.926;6.320;2022-09-09T04:40:12;7.45;;;3.55;;
58101;SDS011;52034;51.926;6.320;2022-09-09T04:41:31;4.57;;;2.95;;
58101;SDS011;52034;51.926;6.320;2022-09-09T04:42:51;5.28;;;3.28;;
58101;SDS011;52034;51.926;6.320;2022-09-09T04:44:10;8.48;;;3.38;;
58101;SDS011;52034;51.926;6.320;2022-09-09T04:45:30;6.78;;;3.00;;
58101;SDS011;52034;51.926;6.320;2022-09-09T04:46:49;7.32;;;3.47;;
58101;SDS011;52034;51.926;6.320;2022-09-09T04:48:08;5.18;;;3.35;;
58101;SDS011;52034;51.926;6.320;2022-09-09T04:49:28;7.25;;;3.13;;
58101;SDS011;52034;51.926;6.320;2022-09-09T04:50:57;5.85;;;3.30;;
58101;SDS011;52034;51.926;6.320;2022-09-09T04:52:17;6.78;;;3.40;;
58101;SDS011;52034;51.926;6.320;2022-09-09T04:53:36;7.50;;;3.28;;
58101;SDS011;52034;51.926;6.320;2022-09-09T04:54:56;6.90;;;3.13;;
58101;SDS011;52034;51.926;6.320;2022-09-09T04:56:16;7.22;;;2.90;;
58101;SDS011;52034;51.926;6.320;2022-09-09T04:57:43;7.15;;;3.75;;
58101;SDS011;52034;51.926;6.320;2022-09-09T04:59:05;5.20;;;3.10;;
58101;SDS011;52034;51.926;6.320;2022-09-09T05:00:34;7.38;;;3.28;;
58101;SDS011;52034;51.926;6.320;2022-09-09T05:01:56;6.53;;;2.90;;
58101;SDS011;52034;51.926;6.320;2022-09-09T05:03:15;3.42;;;2.90;;
58101;SDS011;52034;51.926;6.320;2022-09-09T05:04:34;5.05;;;2.50;;
58101;SDS011;52034;51.926;6.320;2022-09-09T05:05:54;8.55;;;2.88;;
58101;SDS011;52034;51.926;6.320;2022-09-09T05:07:22;9.95;;;2.92;;
58101;SDS011;52034;51.926;6.320;2022-09-09T05:08:41;7.28;;;3.05;;
58101;SDS011;52034;51.926;6.320;2022-09-09T05:10:02;5.50;;;2.47;;
58101;SDS011;52034;51.926;6.320;2022-09-09T05:11:24;7.20;;;2.90;;
58101;SDS011;52034;51.926;6.320;2022-09-09T05:12:54;5.68;;;2.92;;
58101;SDS011;52034;51.926;6.320;2022-09-09T05:14:16;4.30;;;2.30;;
58101;SDS011;52034;51.926;6.320;2022-09-09T05:15:36;7.88;;;2.97;;
58101;SDS011;52034;51.926;6.320;2022-09-09T05:16:55;6.97;;;3.00;;
58101;SDS011;52034;51.926;6.320;2022-09-09T05:18:15;4.60;;;2.75;;
58101;SDS011;52034;51.926;6.320;2022-09-09T05:19:36;3.90;;;2.97;;
58101;SDS011;52034;51.926;6.320;2022-09-09T05:20:59;8.23;;;2.83;;
58101;SDS011;52034;51.926;6.320;2022-09-09T05:22:19;8.43;;;3.03;;
58101;SDS011;52034;51.926;6.320;2022-09-09T05:23:40;6.30;;;2.75;;
58101;SDS011;52034;51.926;6.320;2022-09-09T05:25:00;5.22;;;2.38;;
58101;SDS011;52034;51.926;6.320;2022-09-09T05:26:20;7.05;;;2.80;;
58101;SDS011;52034;51.926;6.320;2022-09-09T05:27:41;5.47;;;2.50;;
58101;SDS011;52034;51.926;6.320;2022-09-09T05:29:00;3.85;;;2.40;;
58101;SDS011;52034;51.926;6.320;2022-09-09T05:30:20;4.35;;;2.80;;
58101;SDS011;52034;51.926;6.320;2022-09-09T05:31:40;4.32;;;2.72;;
58101;SDS011;52034;51.926;6.320;2022-09-09T05:33:04;4.15;;;2.58;;
58101;SDS011;52034;51.926;6.320;2022-09-09T05:34:23;10.15;;;3.28;;
58101;SDS011;52034;51.926;6.320;2022-09-09T05:35:43;7.35;;;2.53;;
58101;SDS011;52034;51.926;6.320;2022-09-09T05:37:02;5.80;;;2.30;;
58101;SDS011;52034;51.926;6.320;2022-09-09T05:38:22;9.05;;;3.13;;
58101;SDS011;52034;51.926;6.320;2022-09-09T05:39:44;4.78;;;2.35;;
58101;SDS011;52034;51.926;6.320;2022-09-09T05:41:04;6.15;;;2.60;;
58101;SDS011;52034;51.926;6.320;2022-09-09T05:42:24;7.28;;;2.67;;
58101;SDS011;52034;51.926;6.320;2022-09-09T05:43:43;7.45;;;2.92;;
58101;SDS011;52034;51.926;6.320;2022-09-09T05:45:04;8.45;;;3.00;;
58101;SDS011;52034;51.926;6.320;2022-09-09T05:46:24;5.93;;;3.08;;
58101;SDS011;52034;51.926;6.320;2022-09-09T05:47:45;5.30;;;2.75;;
58101;SDS011;52034;51.926;6.320;2022-09-09T05:49:12;4.10;;;2.88;;
58101;SDS011;52034;51.926;6.320;2022-09-09T05:50:32;9.82;;;2.90;;
58101;SDS011;52034;51.926;6.320;2022-09-09T05:51:51;4.60;;;2.47;;
58101;SDS011;52034;51.926;6.320;2022-09-09T05:53:12;4.78;;;2.58;;
58101;SDS011;52034;51.926;6.320;2022-09-09T05:54:31;3.22;;;2.33;;
58101;SDS011;52034;51.926;6.320;2022-09-09T05:57:31;7.47;;;2.70;;
58101;SDS011;52034;51.926;6.320;2022-09-09T05:58:50;8.20;;;3.10;;
58101;SDS011;52034;51.926;6.320;2022-09-09T06:00:11;7.68;;;3.35;;
58101;SDS011;52034;51.926;6.320;2022-09-09T06:01:35;7.93;;;2.78;;
58101;SDS011;52034;51.926;6.320;2022-09-09T06:02:55;5.38;;;2.70;;
58101;SDS011;52034;51.926;6.320;2022-09-09T06:04:15;7.78;;;3.22;;
58101;SDS011;52034;51.926;6.320;2022-09-09T06:05:34;6.35;;;3.15;;
58101;SDS011;52034;51.926;6.320;2022-09-09T06:06:53;5.32;;;2.80;;
58101;SDS011;52034;51.926;6.320;2022-09-09T06:08:14;6.40;;;3.55;;
58101;SDS011;52034;51.926;6.320;2022-09-09T06:09:33;5.85;;;2.80;;
58101;SDS011;52034;51.926;6.320;2022-09-09T06:10:52;7.38;;;2.70;;
58101;SDS011;52034;51.926;6.320;2022-09-09T06:12:11;5.95;;;2.65;;
58101;SDS011;52034;51.926;6.320;2022-09-09T06:13:31;8.90;;;2.95;;
58101;SDS011;52034;51.926;6.320;2022-09-09T06:14:50;9.63;;;3.13;;
58101;SDS011;52034;51.926;6.320;2022-09-09T06:16:12;8.60;;;3.20;;
58101;SDS011;52034;51.926;6.320;2022-09-09T06:17:33;7.75;;;3.42;;
58101;SDS011;52034;51.926;6.320;2022-09-09T06:18:53;5.82;;;2.45;;
58101;SDS011;52034;51.926;6.320;2022-09-09T06:20:13;6.82;;;2.65;;
58101;SDS011;52034;51.926;6.320;2022-09-09T06:21:34;10.10;;;2.83;;
58101;SDS011;52034;51.926;6.320;2022-09-09T06:23:00;7.05;;;2.65;;
58101;SDS011;52034;51.926;6.320;2022-09-09T06:24:19;10.60;;;2.85;;
58101;SDS011;52034;51.926;6.320;2022-09-09T06:25:38;12.15;;;2.60;;
58101;SDS011;52034;51.926;6.320;2022-09-09T06:27:00;7.82;;;2.58;;
58101;SDS011;52034;51.926;6.320;2022-09-09T06:28:22;9.05;;;2.63;;
58101;SDS011;52034;51.926;6.320;2022-09-09T06:29:41;7.55;;;2.80;;
58101;SDS011;52034;51.926;6.320;2022-09-09T06:31:01;7.85;;;2.72;;
58101;SDS011;52034;51.926;6.320;2022-09-09T06:32:22;8.90;;;2.97;;
58101;SDS011;52034;51.926;6.320;2022-09-09T06:33:42;6.57;;;2.47;;
58101;SDS011;52034;51.926;6.320;2022-09-09T06:35:04;6.95;;;2.58;;
58101;SDS011;52034;51.926;6.320;2022-09-09T06:36:26;8.27;;;3.22;;
58101;SDS011;52034;51.926;6.320;2022-09-09T06:37:47;7.40;;;2.95;;
58101;SDS011;52034;51.926;6.320;2022-09-09T06:39:08;10.02;;;3.00;;
58101;SDS011;52034;51.926;6.320;2022-09-09T06:40:29;4.70;;;2.88;;
58101;SDS011;52034;51.926;6.320;2022-09-09T06:41:49;7.38;;;2.58;;
58101;SDS011;52034;51.926;6.320;2022-09-09T06:43:31;8.02;;;2.65;;
58101;SDS011;52034;51.926;6.320;2022-09-09T06:44:52;9.75;;;2.83;;
58101;SDS011;52034;51.926;6.320;2022-09-09T06:46:25;5.88;;;2.90;;
58101;SDS011;52034;51.926;6.320;2022-09-09T06:47:50;8.68;;;2.65;;
58101;SDS011;52034;51.926;6.320;2022-09-09T06:49:09;10.25;;;2.80;;
58101;SDS011;52034;51.926;6.320;2022-09-09T06:50:28;5.28;;;2.60;;
58101;SDS011;52034;51.926;6.320;2022-09-09T06:51:47;6.65;;;2.88;;
58101;SDS011;52034;51.926;6.320;2022-09-09T06:53:06;9.70;;;2.92;;
58101;SDS011;52034;51.926;6.320;2022-09-09T06:54:25;7.07;;;2.33;;
58101;SDS011;52034;51.926;6.320;2022-09-09T06:55:45;8.48;;;2.78;;
58101;SDS011;52034;51.926;6.320;2022-09-09T06:57:05;8.20;;;2.72;;
58101;SDS011;52034;51.926;6.320;2022-09-09T06:58:26;5.95;;;2.65;;
58101;SDS011;52034;51.926;6.320;2022-09-09T06:59:47;3.90;;;2.13;;
58101;SDS011;52034;51.926;6.320;2022-09-09T07:01:06;7.38;;;2.60;;
58101;SDS011;52034;51.926;6.320;2022-09-09T07:02:26;4.82;;;2.25;;
58101;SDS011;52034;51.926;6.320;2022-09-09T07:03:47;7.28;;;2.63;;
58101;SDS011;52034;51.926;6.320;2022-09-09T07:05:09;7.95;;;2.53;;
58101;SDS011;52034;51.926;6.320;2022-09-09T07:06:31;9.70;;;2.72;;
58101;SDS011;52034;51.926;6.320;2022-09-09T07:07:52;9.93;;;2.47;;
58101;SDS011;52034;51.926;6.320;2022-09-09T07:09:14;5.25;;;2.28;;
58101;SDS011;52034;51.926;6.320;2022-09-09T07:10:36;5.65;;;2.33;;
58101;SDS011;52034;51.926;6.320;2022-09-09T07:11:56;6.47;;;1.90;;
58101;SDS011;52034;51.926;6.320;2022-09-09T07:13:17;6.32;;;2.35;;
58101;SDS011;52034;51.926;6.320;2022-09-09T07:14:39;8.10;;;2.80;;
58101;SDS011;52034;51.926;6.320;2022-09-09T07:16:04;8.73;;;2.63;;
58101;SDS011;52034;51.926;6.320;2022-09-09T07:17:24;7.03;;;2.50;;
58101;SDS011;52034;51.926;6.320;2022-09-09T07:18:43;9.50;;;2.60;;
58101;SDS011;52034;51.926;6.320;2022-09-09T07:20:03;5.70;;;2.42;;
58101;SDS011;52034;51.926;6.320;2022-09-09T07:21:24;7.15;;;2.40;;
58101;SDS011;52034;51.926;6.320;2022-09-09T07:22:45;9.40;;;2.05;;
58101;SDS011;52034;51.926;6.320;2022-09-09T07:24:04;6.15;;;2.53;;
58101;SDS011;52034;51.926;6.320;2022-09-09T07:25:26;8.23;;;2.47;;
58101;SDS011;52034;51.926;6.320;2022-09-09T07:26:49;4.50;;;2.08;;
58101;SDS011;52034;51.926;6.320;2022-09-09T07:28:10;7.75;;;2.47;;
58101;SDS011;52034;51.926;6.320;2022-09-09T07:29:29;8.38;;;2.45;;
58101;SDS011;52034;51.926;6.320;2022-09-09T07:30:53;5.85;;;2.30;;
58101;SDS011;52034;51.926;6.320;2022-09-09T07:32:13;5.32;;;2.20;;
58101;SDS011;52034;51.926;6.320;2022-09-09T07:33:33;10.70;;;2.90;;
58101;SDS011;52034;51.926;6.320;2022-09-09T07:34:53;8.98;;;3.10;;
58101;SDS011;52034;51.926;6.320;2022-09-09T07:36:18;9.32;;;3.22;;
58101;SDS011;52034;51.926;6.320;2022-09-09T07:37:42;7.25;;;2.75;;
58101;SDS011;52034;51.926;6.320;2022-09-09T07:39:08;9.30;;;2.80;;
58101;SDS011;52034;51.926;6.320;2022-09-09T07:40:30;13.18;;;2.85;;
58101;SDS011;52034;51.926;6.320;2022-09-09T07:41:50;7.03;;;2.55;;
58101;SDS011;52034;51.926;6.320;2022-09-09T07:43:12;8.38;;;2.88;;
58101;SDS011;52034;51.926;6.320;2022-09-09T07:44:31;12.60;;;3.53;;
58101;SDS011;52034;51.926;6.320;2022-09-09T07:45:58;12.13;;;3.00;;
58101;SDS011;52034;51.926;6.320;2022-09-09T07:47:17;7.22;;;3.17;;
58101;SDS011;52034;51.926;6.320;2022-09-09T07:48:43;11.85;;;2.97;;
58101;SDS011;52034;51.926;6.320;2022-09-09T07:50:05;8.43;;;2.47;;
58101;SDS011;52034;51.926;6.320;2022-09-09T07:51:25;10.32;;;3.35;;
58101;SDS011;52034;51.926;6.320;2022-09-09T07:52:46;9.88;;;3.28;;
58101;SDS011;52034;51.926;6.320;2022-09-09T07:54:07;7.88;;;3.22;;
58101;SDS011;52034;51.926;6.320;2022-09-09T07:55:29;10.07;;;2.80;;
58101;SDS011;52034;51.926;6.320;2022-09-09T07:56:49;12.45;;;2.67;;
58101;SDS011;52034;51.926;6.320;2022-09-09T07:58:08;8.65;;;2.78;;
58101;SDS011;52034;51.926;6.320;2022-09-09T07:59:28;9.80;;;2.47;;
58101;SDS011;52034;51.926;6.320;2022-09-09T08:00:49;11.30;;;2.80;;
58101;SDS011;52034;51.926;6.320;2022-09-09T08:02:08;11.02;;;2.78;;
58101;SDS011;52034;51.926;6.320;2022-09-09T08:03:28;10.95;;;3.03;;
58101;SDS011;52034;51.926;6.320;2022-09-09T08:04:47;8.48;;;2.70;;
58101;SDS011;52034;51.926;6.320;2022-09-09T08:06:08;13.68;;;3.70;;
58101;SDS011;52034;51.926;6.320;2022-09-09T08:07:27;11.35;;;3.05;;
58101;SDS011;52034;51.926;6.320;2022-09-09T08:08:49;8.00;;;2.42;;
58101;SDS011;52034;51.926;6.320;2022-09-09T08:10:09;10.50;;;3.03;;
58101;SDS011;52034;51.926;6.320;2022-09-09T08:11:30;11.10;;;2.60;;
58101;SDS011;52034;51.926;6.320;2022-09-09T08:12:51;11.70;;;2.83;;
58101;SDS011;52034;51.926;6.320;2022-09-09T08:14:11;7.85;;;2.78;;
58101;SDS011;52034;51.926;6.320;2022-09-09T08:15:31;8.38;;;3.33;;
58101;SDS011;52034;51.926;6.320;2022-09-09T08:16:51;10.52;;;3.08;;
58101;SDS011;52034;51.926;6.320;2022-09-09T08:18:13;9.88;;;2.97;;
58101;SDS011;52034;51.926;6.320;2022-09-09T08:19:32;11.52;;;3.22;;
58101;SDS011;52034;51.926;6.320;2022-09-09T08:22:14;14.88;;;3.17;;
58101;SDS011;52034;51.926;6.320;2022-09-09T08:23:33;8.73;;;2.63;;
58101;SDS011;52034;51.926;6.320;2022-09-09T08:24:53;7.28;;;2.70;;
58101;SDS011;52034;51.926;6.320;2022-09-09T08:26:14;7.20;;;2.13;;
58101;SDS011;52034;51.926;6.320;2022-09-09T08:27:34;7.88;;;2.45;;
58101;SDS011;52034;51.926;6.320;2022-09-09T08:28:54;10.38;;;2.70;;
58101;SDS011;52034;51.926;6.320;2022-09-09T08:30:15;8.15;;;2.67;;
58101;SDS011;52034;51.926;6.320;2022-09-09T08:31:38;8.07;;;2.55;;
58101;SDS011;52034;51.926;6.320;2022-09-09T08:32:59;11.00;;;2.67;;
58101;SDS011;52034;51.926;6.320;2022-09-09T08:34:18;10.38;;;2.78;;
58101;SDS011;52034;51.926;6.320;2022-09-09T08:35:40;7.15;;;2.35;;
58101;SDS011;52034;51.926;6.320;2022-09-09T08:37:08;9.93;;;2.33;;
58101;SDS011;52034;51.926;6.320;2022-09-09T08:38:30;9.10;;;2.58;;
58101;SDS011;52034;51.926;6.320;2022-09-09T08:39:50;10.00;;;2.90;;
58101;SDS011;52034;51.926;6.320;2022-09-09T08:41:17;5.05;;;2.25;;
58101;SDS011;52034;51.926;6.320;2022-09-09T08:42:59;7.07;;;2.70;;
58101;SDS011;52034;51.926;6.320;2022-09-09T08:44:54;8.80;;;3.00;;
58101;SDS011;52034;51.926;6.320;2022-09-09T08:46:20;9.65;;;2.30;;
58101;SDS011;52034;51.926;6.320;2022-09-09T08:49:16;7.70;;;1.98;;
58101;SDS011;52034;51.926;6.320;2022-09-09T08:50:42;9.63;;;2.33;;
58101;SDS011;52034;51.926;6.320;2022-09-09T08:52:12;8.40;;;2.10;;
58101;SDS011;52034;51.926;6.320;2022-09-09T08:53:45;8.88;;;1.98;;
58101;SDS011;52034;51.926;6.320;2022-09-09T08:55:19;6.97;;;2.33;;
58101;SDS011;52034;51.926;6.320;2022-09-09T08:56:58;8.48;;;2.40;;
58101;SDS011;52034;51.926;6.320;2022-09-09T08:58:18;7.10;;;2.42;;
58101;SDS011;52034;51.926;6.320;2022-09-09T08:59:42;6.55;;;2.22;;
58101;SDS011;52034;51.926;6.320;2022-09-09T09:02:33;5.03;;;1.95;;
58101;SDS011;52034;51.926;6.320;2022-09-09T09:05:46;7.95;;;1.98;;
58101;SDS011;52034;51.926;6.320;2022-09-09T09:09:30;10.57;;;2.00;;
58101;SDS011;52034;51.926;6.320;2022-09-09T09:10:51;6.00;;;2.00;;
58101;SDS011;52034;51.926;6.320;2022-09-09T09:12:17;9.00;;;2.00;;